sensor_id;sensor_type;location;lat;lon;timestamp;P1;durP1;ratioP1;P2;durP2;ratioP2
79330;SDS011;68797;49.782;19.054;2023-07-02T00:02:31;17.20;;;12.10;;
79330;SDS011;68797;49.782;19.054;2023-07-02T00:05:23;17.35;;;12.10;;
79330;SDS011;68797;49.782;19.054;2023-07-02T00:08:17;24.52;;;13.07;;
79330;SDS011;68797;49.782;19.054;2023-07-02T00:11:16;20.48;;;13.50;;
79330;SDS011;68797;49.782;19.054;2023-07-02T00:14:19;21.90;;;13.48;;
79330;SDS011;68797;49.782;19.054;2023-07-02T00:17:04;20.75;;;12.02;;
79330;SDS011;68797;49.782;19.054;2023-07-02T00:19:42;19.58;;;12.38;;
79330;SDS011;68797;49.782;19.054;2023-07-02T00:22:44;19.20;;;11.52;;
79330;SDS011;68797;49.782;19.054;2023-07-02T00:25:39;16.90;;;11.75;;
79330;SDS011;68797;49.782;19.054;2023-07-02T00:28:17;22.77;;;12.73;;
79330;SDS011;68797;49.782;19.054;2023-07-02T00:31:00;16.08;;;10.32;;
79330;SDS011;68797;49.782;19.054;2023-07-02T00:33:43;17.77;;;10.70;;
79330;SDS011;68797;49.782;19.054;2023-07-02T00:36:32;15.95;;;10.60;;
79330;SDS011;68797;49.782;19.054;2023-07-02T00:39:19;15.18;;;9.75;;
79330;SDS011;68797;49.782;19.054;2023-07-02T00:45:29;15.48;;;9.32;;
79330;SDS011;68797;49.782;19.054;2023-07-02T00:48:11;19.52;;;10.18;;
79330;SDS011;68797;49.782;19.054;2023-07-02T00:51:30;13.93;;;9.32;;
79330;SDS011;68797;49.782;19.054;2023-07-02T00:54:20;13.50;;;8.65;;
79330;SDS011;68797;49.782;19.054;2023-07-02T00:56:55;16.48;;;9.50;;
79330;SDS011;68797;49.782;19.054;2023-07-02T01:00:14;12.32;;;8.23;;
79330;SDS011;68797;49.782;19.054;2023-07-02T01:02:42;13.48;;;8.20;;
79330;SDS011;68797;49.782;19.054;2023-07-02T01:05:35;11.65;;;7.75;;
79330;SDS011;68797;49.782;19.054;2023-07-02T01:08:15;14.85;;;9.98;;
79330;SDS011;68797;49.782;19.054;2023-07-02T01:10:58;14.60;;;9.88;;
79330;SDS011;68797;49.782;19.054;2023-07-02T01:13:31;16.02;;;10.35;;
79330;SDS011;68797;49.782;19.054;2023-07-02T01:16:34;16.23;;;10.05;;
79330;SDS011;68797;49.782;19.054;2023-07-02T01:20:10;13.38;;;9.30;;
79330;SDS011;68797;49.782;19.054;2023-07-02T01:23:10;14.73;;;9.45;;
79330;SDS011;68797;49.782;19.054;2023-07-02T01:25:51;12.40;;;7.88;;
79330;SDS011;68797;49.782;19.054;2023-07-02T01:28:35;11.93;;;7.45;;
79330;SDS011;68797;49.782;19.054;2023-07-02T01:31:25;12.93;;;8.50;;
79330;SDS011;68797;49.782;19.054;2023-07-02T01:34:03;15.02;;;9.50;;
79330;SDS011;68797;49.782;19.054;2023-07-02T01:36:44;13.63;;;9.07;;
79330;SDS011;68797;49.782;19.054;2023-07-02T01:39:39;20.42;;;10.65;;
79330;SDS011;68797;49.782;19.054;2023-07-02T01:42:17;16.77;;;11.32;;
79330;SDS011;68797;49.782;19.054;2023-07-02T01:48:22;19.23;;;12.25;;
79330;SDS011;68797;49.782;19.054;2023-07-02T01:51:06;25.60;;;13.88;;
79330;SDS011;68797;49.782;19.054;2023-07-02T01:53:41;21.17;;;13.63;;
79330;SDS011;68797;49.782;19.054;2023-07-02T01:56:37;21.80;;;14.02;;
79330;SDS011;68797;49.782;19.054;2023-07-02T01:59:22;19.42;;;11.85;;
79330;SDS011;68797;49.782;19.054;2023-07-02T02:02:21;18.40;;;11.60;;
79330;SDS011;68797;49.782;19.054;2023-07-02T02:05:14;18.35;;;12.02;;
79330;SDS011;68797;49.782;19.054;2023-07-02T02:07:57;19.38;;;12.27;;
79330;SDS011;68797;49.782;19.054;2023-07-02T02:10:31;20.13;;;12.18;;
79330;SDS011;68797;49.782;19.054;2023-07-02T02:13:04;19.92;;;12.32;;
79330;SDS011;68797;49.782;19.054;2023-07-02T02:16:00;17.92;;;11.82;;
79330;SDS011;68797;49.782;19.054;2023-07-02T02:18:32;21.52;;;13.55;;
79330;SDS011;68797;49.782;19.054;2023-07-02T02:21:09;19.20;;;12.50;;
79330;SDS011;68797;49.782;19.054;2023-07-02T02:23:43;19.08;;;12.90;;
79330;SDS011;68797;49.782;19.054;2023-07-02T02:26:48;24.42;;;13.93;;
79330;SDS011;68797;49.782;19.054;2023-07-02T02:29:34;21.50;;;13.80;;
79330;SDS011;68797;49.782;19.054;2023-07-02T02:32:13;20.15;;;14.18;;
79330;SDS011;68797;49.782;19.054;2023-07-02T02:35:11;23.10;;;12.48;;
79330;SDS011;68797;49.782;19.054;2023-07-02T02:38:02;20.48;;;13.10;;
79330;SDS011;68797;49.782;19.054;2023-07-02T02:40:51;16.15;;;10.60;;
79330;SDS011;68797;49.782;19.054;2023-07-02T02:43:37;20.35;;;10.65;;
79330;SDS011;68797;49.782;19.054;2023-07-02T02:46:31;17.05;;;10.88;;
79330;SDS011;68797;49.782;19.054;2023-07-02T02:49:25;14.55;;;9.88;;
79330;SDS011;68797;49.782;19.054;2023-07-02T02:51:59;15.73;;;9.48;;
79330;SDS011;68797;49.782;19.054;2023-07-02T02:54:35;15.80;;;10.57;;
79330;SDS011;68797;49.782;19.054;2023-07-02T02:57:22;16.55;;;10.10;;
79330;SDS011;68797;49.782;19.054;2023-07-02T03:03:09;14.18;;;9.18;;
79330;SDS011;68797;49.782;19.054;2023-07-02T03:05:59;16.20;;;9.38;;
79330;SDS011;68797;49.782;19.054;2023-07-02T03:08:33;17.65;;;9.98;;
79330;SDS011;68797;49.782;19.054;2023-07-02T03:11:03;18.23;;;8.85;;
79330;SDS011;68797;49.782;19.054;2023-07-02T03:13:46;14.95;;;8.90;;
79330;SDS011;68797;49.782;19.054;2023-07-02T03:16:22;12.02;;;8.07;;
79330;SDS011;68797;49.782;19.054;2023-07-02T03:19:18;11.32;;;7.97;;
79330;SDS011;68797;49.782;19.054;2023-07-02T03:22:41;13.63;;;8.38;;
79330;SDS011;68797;49.782;19.054;2023-07-02T03:25:20;12.07;;;8.55;;
79330;SDS011;68797;49.782;19.054;2023-07-02T03:28:03;10.57;;;7.78;;
79330;SDS011;68797;49.782;19.054;2023-07-02T03:30:39;12.98;;;7.95;;
79330;SDS011;68797;49.782;19.054;2023-07-02T03:33:20;10.63;;;7.43;;
79330;SDS011;68797;49.782;19.054;2023-07-02T03:36:05;13.45;;;7.47;;
79330;SDS011;68797;49.782;19.054;2023-07-02T03:38:51;13.93;;;7.88;;
79330;SDS011;68797;49.782;19.054;2023-07-02T03:42:11;13.85;;;8.07;;
79330;SDS011;68797;49.782;19.054;2023-07-02T03:44:44;13.60;;;7.55;;
79330;SDS011;68797;49.782;19.054;2023-07-02T03:47:27;14.02;;;8.13;;
79330;SDS011;68797;49.782;19.054;2023-07-02T03:50:09;11.10;;;7.50;;
79330;SDS011;68797;49.782;19.054;2023-07-02T03:52:52;10.18;;;7.53;;
79330;SDS011;68797;49.782;19.054;2023-07-02T03:55:44;14.25;;;8.25;;
79330;SDS011;68797;49.782;19.054;2023-07-02T04:01:02;14.35;;;8.10;;
79330;SDS011;68797;49.782;19.054;2023-07-02T04:03:49;13.70;;;8.68;;
79330;SDS011;68797;49.782;19.054;2023-07-02T04:06:23;14.80;;;8.25;;
79330;SDS011;68797;49.782;19.054;2023-07-02T04:09:02;14.88;;;8.70;;
79330;SDS011;68797;49.782;19.054;2023-07-02T04:11:41;14.77;;;9.00;;
79330;SDS011;68797;49.782;19.054;2023-07-02T04:14:23;15.95;;;8.57;;
79330;SDS011;68797;49.782;19.054;2023-07-02T04:16:59;12.63;;;8.45;;
79330;SDS011;68797;49.782;19.054;2023-07-02T04:19:32;17.70;;;8.80;;
79330;SDS011;68797;49.782;19.054;2023-07-02T04:22:15;13.45;;;8.73;;
79330;SDS011;68797;49.782;19.054;2023-07-02T04:25:04;12.02;;;8.18;;
79330;SDS011;68797;49.782;19.054;2023-07-02T04:27:42;12.80;;;7.45;;
79330;SDS011;68797;49.782;19.054;2023-07-02T04:30:36;12.27;;;8.05;;
79330;SDS011;68797;49.782;19.054;2023-07-02T04:33:12;12.95;;;8.00;;
79330;SDS011;68797;49.782;19.054;2023-07-02T04:36:05;11.95;;;7.40;;
79330;SDS011;68797;49.782;19.054;2023-07-02T04:38:51;10.77;;;7.70;;
79330;SDS011;68797;49.782;19.054;2023-07-02T04:41:27;12.15;;;8.32;;
79330;SDS011;68797;49.782;19.054;2023-07-02T04:44:06;13.02;;;8.93;;
79330;SDS011;68797;49.782;19.054;2023-07-02T04:47:08;16.80;;;9.93;;
79330;SDS011;68797;49.782;19.054;2023-07-02T04:49:48;14.20;;;8.90;;
79330;SDS011;68797;49.782;19.054;2023-07-02T04:52:20;18.20;;;11.02;;
79330;SDS011;68797;49.782;19.054;2023-07-02T04:55:22;17.05;;;10.50;;
79330;SDS011;68797;49.782;19.054;2023-07-02T04:58:06;16.23;;;10.88;;
79330;SDS011;68797;49.782;19.054;2023-07-02T05:01:03;16.60;;;10.90;;
79330;SDS011;68797;49.782;19.054;2023-07-02T05:04:11;14.48;;;10.65;;
79330;SDS011;68797;49.782;19.054;2023-07-02T05:06:54;17.77;;;10.65;;
79330;SDS011;68797;49.782;19.054;2023-07-02T05:09:31;19.33;;;11.07;;
79330;SDS011;68797;49.782;19.054;2023-07-02T05:12:04;14.25;;;10.00;;
79330;SDS011;68797;49.782;19.054;2023-07-02T05:22:38;16.85;;;9.40;;
79330;SDS011;68797;49.782;19.054;2023-07-02T05:30:09;13.68;;;8.63;;
79330;SDS011;68797;49.782;19.054;2023-07-02T05:37:49;14.48;;;8.07;;
79330;SDS011;68797;49.782;19.054;2023-07-02T05:41:43;13.13;;;7.93;;
79330;SDS011;68797;49.782;19.054;2023-07-02T05:44:57;12.05;;;7.60;;
79330;SDS011;68797;49.782;19.054;2023-07-02T05:52:56;15.68;;;6.50;;
79330;SDS011;68797;49.782;19.054;2023-07-02T05:56:27;9.55;;;5.93;;
79330;SDS011;68797;49.782;19.054;2023-07-02T06:08:04;8.75;;;5.22;;
79330;SDS011;68797;49.782;19.054;2023-07-02T06:11:38;8.88;;;4.47;;
79330;SDS011;68797;49.782;19.054;2023-07-02T06:22:38;7.20;;;4.05;;
79330;SDS011;68797;49.782;19.054;2023-07-02T06:26:51;6.97;;;3.88;;
79330;SDS011;68797;49.782;19.054;2023-07-02T06:30:04;5.85;;;3.88;;
79330;SDS011;68797;49.782;19.054;2023-07-02T06:33:20;8.55;;;3.95;;
79330;SDS011;68797;49.782;19.054;2023-07-02T06:39:31;5.85;;;3.58;;
79330;SDS011;68797;49.782;19.054;2023-07-02T06:43:21;6.60;;;3.53;;
79330;SDS011;68797;49.782;19.054;2023-07-02T06:46:29;5.05;;;3.25;;
79330;SDS011;68797;49.782;19.054;2023-07-02T06:49:43;4.95;;;2.97;;
79330;SDS011;68797;49.782;19.054;2023-07-02T06:53:17;4.57;;;3.38;;
79330;SDS011;68797;49.782;19.054;2023-07-02T06:56:38;11.95;;;3.38;;
79330;SDS011;68797;49.782;19.054;2023-07-02T07:04:21;7.25;;;3.60;;
79330;SDS011;68797;49.782;19.054;2023-07-02T07:14:58;7.18;;;3.53;;
79330;SDS011;68797;49.782;19.054;2023-07-02T07:18:10;6.03;;;3.47;;
79330;SDS011;68797;49.782;19.054;2023-07-02T07:21:04;6.18;;;3.28;;
79330;SDS011;68797;49.782;19.054;2023-07-02T07:27:14;6.35;;;3.20;;
79330;SDS011;68797;49.782;19.054;2023-07-02T07:30:16;4.75;;;3.15;;
79330;SDS011;68797;49.782;19.054;2023-07-02T07:33:14;5.70;;;3.33;;
79330;SDS011;68797;49.782;19.054;2023-07-02T07:36:16;7.10;;;3.63;;
79330;SDS011;68797;49.782;19.054;2023-07-02T07:39:29;7.47;;;3.25;;
79330;SDS011;68797;49.782;19.054;2023-07-02T07:42:45;6.40;;;3.75;;
79330;SDS011;68797;49.782;19.054;2023-07-02T07:48:34;4.68;;;2.97;;
79330;SDS011;68797;49.782;19.054;2023-07-02T07:51:34;8.20;;;3.53;;
79330;SDS011;68797;49.782;19.054;2023-07-02T07:58:13;6.45;;;3.47;;
79330;SDS011;68797;49.782;19.054;2023-07-02T08:01:03;6.88;;;4.10;;
79330;SDS011;68797;49.782;19.054;2023-07-02T08:04:18;5.50;;;3.40;;
79330;SDS011;68797;49.782;19.054;2023-07-02T08:07:05;8.77;;;3.50;;
79330;SDS011;68797;49.782;19.054;2023-07-02T08:09:43;6.30;;;3.40;;
79330;SDS011;68797;49.782;19.054;2023-07-02T08:12:22;5.03;;;3.05;;
79330;SDS011;68797;49.782;19.054;2023-07-02T08:15:37;6.40;;;3.53;;
79330;SDS011;68797;49.782;19.054;2023-07-02T08:18:38;5.32;;;2.92;;
79330;SDS011;68797;49.782;19.054;2023-07-02T08:21:27;7.72;;;3.22;;
79330;SDS011;68797;49.782;19.054;2023-07-02T08:24:25;6.53;;;3.45;;
79330;SDS011;68797;49.782;19.054;2023-07-02T08:28:20;6.05;;;3.53;;
79330;SDS011;68797;49.782;19.054;2023-07-02T08:31:07;5.97;;;3.58;;
79330;SDS011;68797;49.782;19.054;2023-07-02T08:34:16;6.70;;;3.30;;
79330;SDS011;68797;49.782;19.054;2023-07-02T08:37:20;7.20;;;4.00;;
79330;SDS011;68797;49.782;19.054;2023-07-02T08:40:49;6.75;;;3.80;;
79330;SDS011;68797;49.782;19.054;2023-07-02T08:43:31;5.97;;;4.40;;
79330;SDS011;68797;49.782;19.054;2023-07-02T08:46:30;6.35;;;4.38;;
79330;SDS011;68797;49.782;19.054;2023-07-02T08:50:21;8.95;;;3.63;;
79330;SDS011;68797;49.782;19.054;2023-07-02T08:56:21;9.95;;;5.07;;
79330;SDS011;68797;49.782;19.054;2023-07-02T08:58:57;8.50;;;3.45;;
79330;SDS011;68797;49.782;19.054;2023-07-02T09:02:03;5.43;;;3.70;;
79330;SDS011;68797;49.782;19.054;2023-07-02T09:05:19;4.82;;;3.25;;
79330;SDS011;68797;49.782;19.054;2023-07-02T09:08:27;5.10;;;3.47;;
79330;SDS011;68797;49.782;19.054;2023-07-02T09:15:11;8.45;;;3.53;;
79330;SDS011;68797;49.782;19.054;2023-07-02T09:18:54;6.13;;;3.08;;
79330;SDS011;68797;49.782;19.054;2023-07-02T09:22:03;4.47;;;2.95;;
79330;SDS011;68797;49.782;19.054;2023-07-02T09:25:50;5.25;;;2.92;;
79330;SDS011;68797;49.782;19.054;2023-07-02T09:33:41;5.57;;;3.58;;
79330;SDS011;68797;49.782;19.054;2023-07-02T09:38:14;5.90;;;3.75;;
79330;SDS011;68797;49.782;19.054;2023-07-02T09:50:11;6.75;;;3.50;;
79330;SDS011;68797;49.782;19.054;2023-07-02T09:54:04;4.70;;;3.30;;
79330;SDS011;68797;49.782;19.054;2023-07-02T10:01:29;4.75;;;3.15;;
79330;SDS011;68797;49.782;19.054;2023-07-02T10:04:52;7.45;;;3.70;;
79330;SDS011;68797;49.782;19.054;2023-07-02T10:09:04;6.20;;;3.30;;
79330;SDS011;68797;49.782;19.054;2023-07-02T10:12:31;4.53;;;2.92;;
79330;SDS011;68797;49.782;19.054;2023-07-02T10:20:42;6.20;;;3.53;;
79330;SDS011;68797;49.782;19.054;2023-07-02T10:39:58;4.57;;;3.15;;
79330;SDS011;68797;49.782;19.054;2023-07-02T10:48:32;5.10;;;2.78;;
79330;SDS011;68797;49.782;19.054;2023-07-02T10:56:46;5.13;;;2.60;;
79330;SDS011;68797;49.782;19.054;2023-07-02T11:00:29;3.80;;;2.80;;
79330;SDS011;68797;49.782;19.054;2023-07-02T11:13:29;3.67;;;2.30;;
79330;SDS011;68797;49.782;19.054;2023-07-02T11:50:57;1.98;;;1.80;;
79330;SDS011;68797;49.782;19.054;2023-07-02T11:53:37;2.38;;;1.70;;
79330;SDS011;68797;49.782;19.054;2023-07-02T11:56:23;4.32;;;2.17;;
79330;SDS011;68797;49.782;19.054;2023-07-02T11:59:32;2.45;;;1.77;;
79330;SDS011;68797;49.782;19.054;2023-07-02T12:02:39;2.13;;;1.50;;
79330;SDS011;68797;49.782;19.054;2023-07-02T12:06:01;3.58;;;1.42;;
79330;SDS011;68797;49.782;19.054;2023-07-02T12:09:20;2.20;;;1.60;;
79330;SDS011;68797;49.782;19.054;2023-07-02T12:12:46;1.70;;;1.45;;
79330;SDS011;68797;49.782;19.054;2023-07-02T12:22:08;2.00;;;1.73;;
79330;SDS011;68797;49.782;19.054;2023-07-02T12:25:05;1.75;;;1.50;;
79330;SDS011;68797;49.782;19.054;2023-07-02T12:27:59;2.33;;;1.83;;
79330;SDS011;68797;49.782;19.054;2023-07-02T12:30:48;3.60;;;2.08;;
79330;SDS011;68797;49.782;19.054;2023-07-02T12:34:02;3.15;;;2.67;;
79330;SDS011;68797;49.782;19.054;2023-07-02T12:36:46;4.10;;;2.00;;
79330;SDS011;68797;49.782;19.054;2023-07-02T12:40:07;3.17;;;2.15;;
79330;SDS011;68797;49.782;19.054;2023-07-02T12:43:00;4.13;;;2.28;;
79330;SDS011;68797;49.782;19.054;2023-07-02T12:45:41;3.13;;;2.25;;
79330;SDS011;68797;49.782;19.054;2023-07-02T12:48:17;3.25;;;2.20;;
79330;SDS011;68797;49.782;19.054;2023-07-02T12:51:17;2.75;;;2.22;;
79330;SDS011;68797;49.782;19.054;2023-07-02T12:54:11;2.60;;;1.92;;
79330;SDS011;68797;49.782;19.054;2023-07-02T12:57:17;4.55;;;2.50;;
79330;SDS011;68797;49.782;19.054;2023-07-02T13:02:58;4.53;;;2.33;;
79330;SDS011;68797;49.782;19.054;2023-07-02T13:08:29;3.78;;;2.35;;
79330;SDS011;68797;49.782;19.054;2023-07-02T13:11:21;3.00;;;2.40;;
79330;SDS011;68797;49.782;19.054;2023-07-02T13:14:02;3.28;;;2.40;;
79330;SDS011;68797;49.782;19.054;2023-07-02T13:16:57;2.65;;;1.95;;
79330;SDS011;68797;49.782;19.054;2023-07-02T13:19:57;2.83;;;2.22;;
79330;SDS011;68797;49.782;19.054;2023-07-02T13:25:59;4.15;;;2.10;;
79330;SDS011;68797;49.782;19.054;2023-07-02T13:28:38;3.15;;;2.33;;
79330;SDS011;68797;49.782;19.054;2023-07-02T13:31:45;2.42;;;2.00;;
79330;SDS011;68797;49.782;19.054;2023-07-02T13:34:39;5.50;;;2.10;;
79330;SDS011;68797;49.782;19.054;2023-07-02T13:37:27;6.45;;;2.22;;
79330;SDS011;68797;49.782;19.054;2023-07-02T13:40:01;3.50;;;2.58;;
79330;SDS011;68797;49.782;19.054;2023-07-02T13:42:49;3.33;;;2.28;;
79330;SDS011;68797;49.782;19.054;2023-07-02T13:45:35;4.05;;;2.42;;
79330;SDS011;68797;49.782;19.054;2023-07-02T13:48:20;2.30;;;2.10;;
79330;SDS011;68797;49.782;19.054;2023-07-02T13:51:03;4.43;;;2.35;;
79330;SDS011;68797;49.782;19.054;2023-07-02T13:53:42;2.80;;;2.28;;
79330;SDS011;68797;49.782;19.054;2023-07-02T13:56:17;2.80;;;2.25;;
79330;SDS011;68797;49.782;19.054;2023-07-02T14:04:47;4.18;;;2.50;;
79330;SDS011;68797;49.782;19.054;2023-07-02T14:07:25;3.92;;;2.35;;
79330;SDS011;68797;49.782;19.054;2023-07-02T14:10:19;3.65;;;2.60;;
79330;SDS011;68797;49.782;19.054;2023-07-02T14:13:10;4.03;;;2.47;;
79330;SDS011;68797;49.782;19.054;2023-07-02T14:16:05;4.50;;;2.60;;
79330;SDS011;68797;49.782;19.054;2023-07-02T14:18:47;3.45;;;2.33;;
79330;SDS011;68797;49.782;19.054;2023-07-02T14:21:42;3.33;;;2.72;;
79330;SDS011;68797;49.782;19.054;2023-07-02T14:24:16;3.28;;;2.40;;
79330;SDS011;68797;49.782;19.054;2023-07-02T14:27:36;3.53;;;2.60;;
79330;SDS011;68797;49.782;19.054;2023-07-02T14:30:20;4.10;;;2.33;;
79330;SDS011;68797;49.782;19.054;2023-07-02T14:33:01;5.18;;;2.47;;
79330;SDS011;68797;49.782;19.054;2023-07-02T14:35:49;3.15;;;2.47;;
79330;SDS011;68797;49.782;19.054;2023-07-02T14:39:08;4.28;;;2.30;;
79330;SDS011;68797;49.782;19.054;2023-07-02T14:42:03;3.63;;;2.50;;
79330;SDS011;68797;49.782;19.054;2023-07-02T14:44:39;3.95;;;2.53;;
79330;SDS011;68797;49.782;19.054;2023-07-02T14:47:14;2.55;;;2.22;;
79330;SDS011;68797;49.782;19.054;2023-07-02T14:49:54;2.85;;;2.40;;
79330;SDS011;68797;49.782;19.054;2023-07-02T14:55:30;4.57;;;2.45;;
79330;SDS011;68797;49.782;19.054;2023-07-02T15:01:11;3.22;;;2.10;;
79330;SDS011;68797;49.782;19.054;2023-07-02T15:03:55;3.10;;;2.80;;
79330;SDS011;68797;49.782;19.054;2023-07-02T15:06:42;3.60;;;2.13;;
79330;SDS011;68797;49.782;19.054;2023-07-02T15:09:55;3.95;;;2.38;;
79330;SDS011;68797;49.782;19.054;2023-07-02T15:12:46;2.90;;;2.30;;
79330;SDS011;68797;49.782;19.054;2023-07-02T15:15:30;2.83;;;2.35;;
79330;SDS011;68797;49.782;19.054;2023-07-02T15:18:18;3.08;;;2.40;;
79330;SDS011;68797;49.782;19.054;2023-07-02T15:21:06;3.22;;;2.33;;
79330;SDS011;68797;49.782;19.054;2023-07-02T15:24:15;3.30;;;2.33;;
79330;SDS011;68797;49.782;19.054;2023-07-02T15:27:11;2.85;;;2.20;;
79330;SDS011;68797;49.782;19.054;2023-07-02T15:32:51;2.75;;;2.25;;
79330;SDS011;68797;49.782;19.054;2023-07-02T15:35:34;3.05;;;2.00;;
79330;SDS011;68797;49.782;19.054;2023-07-02T15:38:14;3.13;;;2.42;;
79330;SDS011;68797;49.782;19.054;2023-07-02T15:41:14;3.13;;;2.40;;
79330;SDS011;68797;49.782;19.054;2023-07-02T15:44:02;4.05;;;2.67;;
79330;SDS011;68797;49.782;19.054;2023-07-02T15:46:43;3.95;;;2.88;;
79330;SDS011;68797;49.782;19.054;2023-07-02T15:49:37;3.55;;;2.53;;
79330;SDS011;68797;49.782;19.054;2023-07-02T15:52:33;3.42;;;2.47;;
79330;SDS011;68797;49.782;19.054;2023-07-02T15:58:13;3.35;;;2.45;;
79330;SDS011;68797;49.782;19.054;2023-07-02T16:01:18;2.80;;;2.25;;
79330;SDS011;68797;49.782;19.054;2023-07-02T16:04:23;3.00;;;2.33;;
79330;SDS011;68797;49.782;19.054;2023-07-02T16:07:10;3.13;;;2.38;;
79330;SDS011;68797;49.782;19.054;2023-07-02T16:09:49;4.22;;;2.10;;
79330;SDS011;68797;49.782;19.054;2023-07-02T16:12:28;5.90;;;2.22;;
79330;SDS011;68797;49.782;19.054;2023-07-02T16:15:16;2.30;;;1.83;;
79330;SDS011;68797;49.782;19.054;2023-07-02T16:18:21;2.67;;;1.95;;
79330;SDS011;68797;49.782;19.054;2023-07-02T16:21:12;3.30;;;2.47;;
79330;SDS011;68797;49.782;19.054;2023-07-02T16:24:03;3.47;;;2.38;;
79330;SDS011;68797;49.782;19.054;2023-07-02T16:26:45;5.72;;;2.28;;
79330;SDS011;68797;49.782;19.054;2023-07-02T16:29:29;6.60;;;2.30;;
79330;SDS011;68797;49.782;19.054;2023-07-02T16:32:22;3.55;;;2.60;;
79330;SDS011;68797;49.782;19.054;2023-07-02T16:35:15;3.30;;;2.15;;
79330;SDS011;68797;49.782;19.054;2023-07-02T16:38:23;3.75;;;2.22;;
79330;SDS011;68797;49.782;19.054;2023-07-02T16:41:24;3.30;;;2.30;;
79330;SDS011;68797;49.782;19.054;2023-07-02T16:44:30;3.45;;;2.25;;
79330;SDS011;68797;49.782;19.054;2023-07-02T16:47:38;2.85;;;2.10;;
79330;SDS011;68797;49.782;19.054;2023-07-02T16:50:33;3.00;;;2.55;;
79330;SDS011;68797;49.782;19.054;2023-07-02T16:53:17;3.38;;;2.35;;
79330;SDS011;68797;49.782;19.054;2023-07-02T16:56:01;3.85;;;2.28;;
79330;SDS011;68797;49.782;19.054;2023-07-02T16:58:40;3.47;;;2.38;;
79330;SDS011;68797;49.782;19.054;2023-07-02T17:02:07;3.65;;;2.30;;
79330;SDS011;68797;49.782;19.054;2023-07-02T17:04:51;3.78;;;2.53;;
79330;SDS011;68797;49.782;19.054;2023-07-02T17:07:52;3.45;;;2.53;;
79330;SDS011;68797;49.782;19.054;2023-07-02T17:10:40;4.22;;;2.47;;
79330;SDS011;68797;49.782;19.054;2023-07-02T17:13:58;3.80;;;2.67;;
79330;SDS011;68797;49.782;19.054;2023-07-02T17:17:17;4.32;;;2.50;;
79330;SDS011;68797;49.782;19.054;2023-07-02T17:20:21;4.22;;;2.63;;
79330;SDS011;68797;49.782;19.054;2023-07-02T17:23:32;3.95;;;2.60;;
79330;SDS011;68797;49.782;19.054;2023-07-02T17:26:14;5.63;;;3.67;;
79330;SDS011;68797;49.782;19.054;2023-07-02T17:29:08;9.82;;;6.38;;
79330;SDS011;68797;49.782;19.054;2023-07-02T17:32:26;10.63;;;4.93;;
79330;SDS011;68797;49.782;19.054;2023-07-02T17:35:19;5.57;;;3.35;;
79330;SDS011;68797;49.782;19.054;2023-07-02T17:38:30;5.55;;;3.45;;
79330;SDS011;68797;49.782;19.054;2023-07-02T17:44:36;3.13;;;2.53;;
79330;SDS011;68797;49.782;19.054;2023-07-02T17:47:18;3.45;;;2.63;;
79330;SDS011;68797;49.782;19.054;2023-07-02T17:50:26;3.35;;;2.58;;
79330;SDS011;68797;49.782;19.054;2023-07-02T17:56:33;3.38;;;2.47;;
79330;SDS011;68797;49.782;19.054;2023-07-02T17:59:42;3.25;;;2.55;;
79330;SDS011;68797;49.782;19.054;2023-07-02T18:02:28;4.70;;;2.58;;
79330;SDS011;68797;49.782;19.054;2023-07-02T18:05:33;5.45;;;2.70;;
79330;SDS011;68797;49.782;19.054;2023-07-02T18:08:07;3.20;;;2.63;;
79330;SDS011;68797;49.782;19.054;2023-07-02T18:10:55;4.57;;;2.53;;
79330;SDS011;68797;49.782;19.054;2023-07-02T18:14:11;2.83;;;2.47;;
79330;SDS011;68797;49.782;19.054;2023-07-02T18:17:14;3.85;;;2.70;;
79330;SDS011;68797;49.782;19.054;2023-07-02T18:19:57;3.58;;;2.75;;
79330;SDS011;68797;49.782;19.054;2023-07-02T18:22:52;3.28;;;2.53;;
79330;SDS011;68797;49.782;19.054;2023-07-02T18:25:41;4.18;;;2.85;;
79330;SDS011;68797;49.782;19.054;2023-07-02T18:28:49;3.53;;;2.45;;
79330;SDS011;68797;49.782;19.054;2023-07-02T18:31:37;6.15;;;2.95;;
79330;SDS011;68797;49.782;19.054;2023-07-02T18:34:27;5.10;;;2.85;;
79330;SDS011;68797;49.782;19.054;2023-07-02T18:37:35;3.97;;;2.95;;
79330;SDS011;68797;49.782;19.054;2023-07-02T18:40:42;3.20;;;2.63;;
79330;SDS011;68797;49.782;19.054;2023-07-02T18:43:32;3.92;;;2.63;;
79330;SDS011;68797;49.782;19.054;2023-07-02T18:46:43;3.85;;;2.63;;
79330;SDS011;68797;49.782;19.054;2023-07-02T18:49:23;3.67;;;2.50;;
79330;SDS011;68797;49.782;19.054;2023-07-02T18:52:24;8.68;;;6.53;;
79330;SDS011;68797;49.782;19.054;2023-07-02T18:55:19;4.38;;;3.50;;
79330;SDS011;68797;49.782;19.054;2023-07-02T18:58:29;5.47;;;4.15;;
79330;SDS011;68797;49.782;19.054;2023-07-02T19:01:09;6.50;;;4.97;;
79330;SDS011;68797;49.782;19.054;2023-07-02T19:04:17;9.13;;;4.20;;
79330;SDS011;68797;49.782;19.054;2023-07-02T19:06:59;3.65;;;3.00;;
79330;SDS011;68797;49.782;19.054;2023-07-02T19:09:37;4.50;;;3.20;;
79330;SDS011;68797;49.782;19.054;2023-07-02T19:12:34;3.67;;;2.80;;
79330;SDS011;68797;49.782;19.054;2023-07-02T19:15:24;6.85;;;3.00;;
79330;SDS011;68797;49.782;19.054;2023-07-02T19:18:18;4.22;;;3.78;;
79330;SDS011;68797;49.782;19.054;2023-07-02T19:20:57;23.38;;;16.50;;
79330;SDS011;68797;49.782;19.054;2023-07-02T19:27:38;14.40;;;11.20;;
79330;SDS011;68797;49.782;19.054;2023-07-02T19:30:22;5.82;;;4.70;;
79330;SDS011;68797;49.782;19.054;2023-07-02T19:33:13;4.75;;;4.13;;
79330;SDS011;68797;49.782;19.054;2023-07-02T19:36:08;4.63;;;4.05;;
79330;SDS011;68797;49.782;19.054;2023-07-02T19:42:12;5.10;;;4.13;;
79330;SDS011;68797;49.782;19.054;2023-07-02T19:48:04;7.75;;;4.88;;
79330;SDS011;68797;49.782;19.054;2023-07-02T19:50:50;7.10;;;4.55;;
79330;SDS011;68797;49.782;19.054;2023-07-02T19:53:51;4.88;;;3.80;;
79330;SDS011;68797;49.782;19.054;2023-07-02T19:56:34;6.15;;;3.03;;
79330;SDS011;68797;49.782;19.054;2023-07-02T19:59:18;3.95;;;2.92;;
79330;SDS011;68797;49.782;19.054;2023-07-02T20:05:39;4.28;;;2.70;;
79330;SDS011;68797;49.782;19.054;2023-07-02T20:08:37;3.80;;;2.85;;
79330;SDS011;68797;49.782;19.054;2023-07-02T20:11:21;4.10;;;3.03;;
79330;SDS011;68797;49.782;19.054;2023-07-02T20:13:55;3.85;;;2.70;;
79330;SDS011;68797;49.782;19.054;2023-07-02T20:16:44;4.63;;;3.03;;
79330;SDS011;68797;49.782;19.054;2023-07-02T20:19:57;5.10;;;4.03;;
79330;SDS011;68797;49.782;19.054;2023-07-02T20:23:05;5.57;;;4.03;;
79330;SDS011;68797;49.782;19.054;2023-07-02T20:25:53;6.20;;;3.95;;
79330;SDS011;68797;49.782;19.054;2023-07-02T20:28:50;5.10;;;3.15;;
79330;SDS011;68797;49.782;19.054;2023-07-02T20:31:43;7.10;;;3.38;;
79330;SDS011;68797;49.782;19.054;2023-07-02T20:34:37;3.60;;;3.00;;
79330;SDS011;68797;49.782;19.054;2023-07-02T20:38:13;4.75;;;3.65;;
79330;SDS011;68797;49.782;19.054;2023-07-02T20:40:54;4.57;;;3.95;;
79330;SDS011;68797;49.782;19.054;2023-07-02T20:43:45;5.05;;;3.80;;
79330;SDS011;68797;49.782;19.054;2023-07-02T20:46:32;5.43;;;3.80;;
79330;SDS011;68797;49.782;19.054;2023-07-02T20:49:27;7.80;;;4.22;;
79330;SDS011;68797;49.782;19.054;2023-07-02T20:52:24;5.65;;;4.10;;
79330;SDS011;68797;49.782;19.054;2023-07-02T20:55:13;8.23;;;5.13;;
79330;SDS011;68797;49.782;19.054;2023-07-02T20:58:11;6.35;;;4.65;;
79330;SDS011;68797;49.782;19.054;2023-07-02T21:01:18;6.65;;;3.95;;
79330;SDS011;68797;49.782;19.054;2023-07-02T21:03:57;4.88;;;3.95;;